createdAt,value
2022-12-15T00:02:57.585Z,91.27
2022-12-15T00:06:20.058Z,90.11
2022-12-15T00:09:41.649Z,89.70
2022-12-15T00:13:03.356Z,89.97
2022-12-15T00:16:26.521Z,89.87
2022-12-15T00:19:48.555Z,90.09
2022-12-15T00:23:10.133Z,90.37
2022-12-15T00:26:32.413Z,90.80
2022-12-15T00:29:54.367Z,90.49
2022-12-15T00:33:16.216Z,90.30
2022-12-15T00:36:37.710Z,90.97
2022-12-15T00:39:40.881Z,90.43
2022-12-15T00:42:43.796Z,90.12
2022-12-15T00:46:05.637Z,90.22
2022-12-15T00:49:28.880Z,90.33
2022-12-15T00:52:50.671Z,90.43
2022-12-15T00:56:12.105Z,90.16
2022-12-15T00:59:35.130Z,90.31
2022-12-15T01:02:56.864Z,90.59
2022-12-15T01:06:18.615Z,90.71
2022-12-15T01:09:39.826Z,90.66
2022-12-15T01:13:02.218Z,90.98
2022-12-15T01:16:30.285Z,91.25
2022-12-15T01:19:52.120Z,91.68
2022-12-15T01:22:56.239Z,92.19
2022-12-15T01:25:59.484Z,92.37
2022-12-15T01:29:02.414Z,92.76
2022-12-15T01:32:06.018Z,93.07
2022-12-15T01:35:09.260Z,93.46
2022-12-15T01:38:12.567Z,93.58
2022-12-15T01:41:15.618Z,94.01
2022-12-15T01:44:22.004Z,94.46
2022-12-15T01:47:25.792Z,94.99
2022-12-15T01:50:32.159Z,94.58
2022-12-15T01:53:40.173Z,93.88
2022-12-15T01:56:46.964Z,93.91
2022-12-15T01:59:53.115Z,93.85
2022-12-15T02:02:57.162Z,93.51
2022-12-15T02:06:01.358Z,94.09
2022-12-15T02:09:04.765Z,94.41
2022-12-15T02:12:29.509Z,94.41
2022-12-15T02:15:42.017Z,94.31
2022-12-15T02:19:03.794Z,94.20
2022-12-15T02:22:38.734Z,94.12
2022-12-15T02:25:45.113Z,93.83
2022-12-15T02:29:05.769Z,93.87
2022-12-15T02:32:15.332Z,93.68
2022-12-15T02:35:44.531Z,93.73
2022-12-15T02:38:47.904Z,93.71
2022-12-15T02:41:53.029Z,93.76
2022-12-15T02:45:09.680Z,93.53
2022-12-15T02:48:23.898Z,93.12
2022-12-15T02:51:48.144Z,93.39
2022-12-15T02:55:14.176Z,93.61
2022-12-15T02:58:20.245Z,93.91
2022-12-15T03:01:37.132Z,93.70
2022-12-15T03:04:44.261Z,93.75
2022-12-15T03:07:50.280Z,94.09
2022-12-15T03:10:55.906Z,94.15
2022-12-15T03:13:59.032Z,94.33
2022-12-15T03:17:04.300Z,94.56
2022-12-15T03:20:09.189Z,94.92
2022-12-15T03:23:13.692Z,95.14
2022-12-15T03:26:16.598Z,95.14
2022-12-15T03:29:20.054Z,95.09
2022-12-15T03:32:22.976Z,94.89
2022-12-15T03:35:26.198Z,95.02
2022-12-15T03:38:29.146Z,95.46
2022-12-15T03:41:32.364Z,95.79
2022-12-15T03:44:35.430Z,95.67
2022-12-15T03:47:42.024Z,95.64
2022-12-15T03:50:44.935Z,95.71
2022-12-15T03:53:49.427Z,95.69
2022-12-15T03:56:52.347Z,95.82
2022-12-15T03:59:55.654Z,95.94
2022-12-15T04:02:58.643Z,96.07
2022-12-15T04:06:02.302Z,95.44
2022-12-15T04:09:05.417Z,93.76
2022-12-15T04:12:11.239Z,94.05
2022-12-15T04:15:14.355Z,94.56
2022-12-15T04:18:17.630Z,94.77
2022-12-15T04:21:20.495Z,94.87
2022-12-15T04:24:42.538Z,95.11
2022-12-15T04:28:04.605Z,95.19
2022-12-15T04:31:32.251Z,95.26
2022-12-15T04:34:54.253Z,95.67
2022-12-15T04:38:16.018Z,95.84
2022-12-15T04:41:38.468Z,95.95
2022-12-15T04:45:01.074Z,96.24
2022-12-15T04:48:23.335Z,96.22
2022-12-15T04:51:45.144Z,96.42
2022-12-15T04:55:06.725Z,96.27
2022-12-15T04:58:30.066Z,96.08
2022-12-15T05:01:52.633Z,96.07
2022-12-15T05:05:14.445Z,96.03
2022-12-15T05:08:36.459Z,96.00
2022-12-15T05:12:08.067Z,95.68
2022-12-15T05:15:29.438Z,95.91
2022-12-15T05:18:51.431Z,95.94
2022-12-15T05:22:13.090Z,96.00
2022-12-15T05:25:35.645Z,95.87
2022-12-15T05:28:58.022Z,95.91
2022-12-15T05:32:01.244Z,96.48
2022-12-15T05:35:05.686Z,96.47
2022-12-15T05:38:08.972Z,96.68
2022-12-15T05:41:11.835Z,96.62
2022-12-15T05:44:15.304Z,96.79
2022-12-15T05:47:18.196Z,97.15
2022-12-15T05:50:22.185Z,97.46
2022-12-15T05:53:25.352Z,97.44
2022-12-15T05:56:29.376Z,97.54
2022-12-15T05:59:32.254Z,97.68
2022-12-15T06:02:35.526Z,97.71
2022-12-15T06:05:39.799Z,97.83
2022-12-15T06:08:43.530Z,97.49
2022-12-15T06:11:46.841Z,97.29
2022-12-15T06:14:49.801Z,97.06
2022-12-15T06:17:57.198Z,96.52
2022-12-15T06:21:02.956Z,96.23
2022-12-15T06:24:07.024Z,96.00
2022-12-15T06:27:10.136Z,96.33
2022-12-15T06:30:14.081Z,96.61
2022-12-15T06:33:17.561Z,95.96
2022-12-15T06:36:21.002Z,96.16
2022-12-15T06:39:23.952Z,96.25
2022-12-15T06:42:27.177Z,96.61
2022-12-15T06:45:30.087Z,96.83
2022-12-15T06:48:33.427Z,96.40
2022-12-15T06:51:37.305Z,96.43
2022-12-15T06:54:40.418Z,96.31
2022-12-15T06:57:43.278Z,96.51
2022-12-15T07:00:46.733Z,96.48
2022-12-15T07:03:51.075Z,96.56
2022-12-15T07:06:54.532Z,96.21
2022-12-15T07:09:57.941Z,96.05
2022-12-15T07:13:01.124Z,96.42
2022-12-15T07:16:06.437Z,95.79
2022-12-15T07:19:13.302Z,96.01
2022-12-15T07:22:16.199Z,95.77
2022-12-15T07:25:19.971Z,95.38
2022-12-15T07:28:25.892Z,95.09
2022-12-15T07:31:48.153Z,94.77
2022-12-15T07:34:52.098Z,94.22
2022-12-15T07:37:55.407Z,93.94
2022-12-15T07:41:04.083Z,94.47
2022-12-15T07:44:07.990Z,93.11
2022-12-15T07:47:12.046Z,93.82
2022-12-15T07:50:16.167Z,93.77
2022-12-15T07:53:22.108Z,94.59
2022-12-15T07:56:26.592Z,93.85
2022-12-15T07:59:29.521Z,92.34
2022-12-15T08:02:34.325Z,91.40
2022-12-15T08:05:38.939Z,91.51
2022-12-15T08:08:42.089Z,91.28
2022-12-15T08:11:45.444Z,91.14
2022-12-15T08:14:50.283Z,90.15
2022-12-15T08:17:53.481Z,89.19
2022-12-15T08:20:56.723Z,88.21
2022-12-15T08:24:01.086Z,88.26
2022-12-15T08:27:04.358Z,87.86
2022-12-15T08:30:08.105Z,87.70
2022-12-15T08:33:11.455Z,88.13
2022-12-15T08:36:16.271Z,87.52
2022-12-15T08:39:19.161Z,87.68
2022-12-15T08:42:22.305Z,86.81
2022-12-15T08:45:26.213Z,87.19
2022-12-15T08:48:31.161Z,86.87
2022-12-15T08:51:34.140Z,86.92
2022-12-15T08:54:38.639Z,86.59
2022-12-15T08:57:41.660Z,85.83
2022-12-15T09:00:44.884Z,86.03
2022-12-15T09:03:47.887Z,85.69
2022-12-15T09:06:51.300Z,85.86
2022-12-15T09:09:54.462Z,85.39
2022-12-15T09:12:57.818Z,85.47
2022-12-15T09:16:10.298Z,85.21
2022-12-15T09:19:14.302Z,86.64
2022-12-15T09:22:17.701Z,84.71
2022-12-15T09:25:21.048Z,85.63
2022-12-15T09:28:23.988Z,87.10
2022-12-15T09:31:33.394Z,86.84
2022-12-15T09:34:36.793Z,89.11
2022-12-15T09:37:40.086Z,89.01
2022-12-15T09:40:43.018Z,89.09
2022-12-15T09:44:00.595Z,88.56
2022-12-15T09:47:18.609Z,88.66
2022-12-15T09:50:26.779Z,88.46
2022-12-15T09:53:54.153Z,87.68
2022-12-15T09:56:57.305Z,88.45
2022-12-15T10:00:00.127Z,87.10
2022-12-15T10:03:22.691Z,86.00
2022-12-15T10:06:33.505Z,85.55
2022-12-15T10:09:38.533Z,84.75
2022-12-15T10:12:53.144Z,85.28
2022-12-15T10:16:04.735Z,87.00
2022-12-15T10:19:13.556Z,86.75
2022-12-15T10:22:24.786Z,86.15
2022-12-15T10:25:31.039Z,86.60
2022-12-15T10:28:51.336Z,85.42
2022-12-15T10:31:58.292Z,83.89
2022-12-15T10:35:01.476Z,82.20
2022-12-15T10:38:09.498Z,84.02
2022-12-15T10:41:19.808Z,81.90
2022-12-15T10:44:32.108Z,81.64
2022-12-15T10:47:35.266Z,82.58
2022-12-15T10:50:39.365Z,82.29
2022-12-15T10:53:50.444Z,83.01
2022-12-15T10:56:59.181Z,83.32
2022-12-15T11:00:15.622Z,81.84
2022-12-15T11:03:26.435Z,82.97
2022-12-15T11:06:32.610Z,85.00
2022-12-15T11:09:38.440Z,86.10
2022-12-15T11:12:58.315Z,85.70
2022-12-15T11:16:14.597Z,85.44
2022-12-15T11:19:30.871Z,86.23
2022-12-15T11:22:44.699Z,87.44
2022-12-15T11:26:11.856Z,88.09
2022-12-15T11:29:42.110Z,88.81
2022-12-15T11:32:48.906Z,90.62
2022-12-15T11:36:10.073Z,90.34
2022-12-15T11:39:34.626Z,91.10
2022-12-15T11:42:53.003Z,91.25
2022-12-15T11:46:15.021Z,90.86
2022-12-15T11:49:26.997Z,90.60
2022-12-15T11:53:24.535Z,91.01
2022-12-15T11:56:41.530Z,91.46
2022-12-15T11:59:52.028Z,91.82
2022-12-15T12:03:09.349Z,91.84
2022-12-15T12:06:17.413Z,90.84
2022-12-15T12:09:33.336Z,90.43
2022-12-15T12:12:36.432Z,90.12
2022-12-15T12:15:46.050Z,90.44
2022-12-15T12:19:04.701Z,91.20
2022-12-15T12:22:27.887Z,90.73
2022-12-15T12:25:37.933Z,90.44
2022-12-15T12:28:48.663Z,89.99
2022-12-15T12:32:18.619Z,91.32
2022-12-15T12:35:47.568Z,91.73
2022-12-15T12:38:56.263Z,91.58
2022-12-15T12:42:37.243Z,90.54
2022-12-15T12:45:47.539Z,90.49
2022-12-15T12:49:03.830Z,90.43
2022-12-15T12:52:25.711Z,90.51
2022-12-15T12:55:44.195Z,90.12
2022-12-15T12:58:48.681Z,89.64
2022-12-15T13:01:51.807Z,88.90
2022-12-15T13:04:58.827Z,88.06
2022-12-15T13:08:08.151Z,88.54
2022-12-15T13:11:48.906Z,88.47
2022-12-15T13:15:19.814Z,88.57
2022-12-15T13:18:25.076Z,88.33
2022-12-15T13:21:43.402Z,88.20
2022-12-15T13:24:50.505Z,87.81
2022-12-15T13:27:57.927Z,87.57
2022-12-15T13:31:22.625Z,87.48
2022-12-15T13:34:27.195Z,87.05
2022-12-15T13:37:53.545Z,86.82
2022-12-15T13:40:56.427Z,86.20
2022-12-15T13:44:00.759Z,86.41
2022-12-15T13:47:10.539Z,86.68
2022-12-15T13:50:18.596Z,86.81
2022-12-15T13:53:23.773Z,87.01
2022-12-15T13:56:53.284Z,87.08
2022-12-15T14:00:05.253Z,87.45
2022-12-15T14:03:14.903Z,87.76
2022-12-15T14:06:18.059Z,87.83
2022-12-15T14:09:24.793Z,88.35
2022-12-15T14:12:28.121Z,88.40
2022-12-15T14:15:32.530Z,88.77
2022-12-15T14:18:39.135Z,88.94
2022-12-15T14:21:58.885Z,89.09
2022-12-15T14:25:14.610Z,89.11
2022-12-15T14:28:32.558Z,89.22
2022-12-15T14:31:37.592Z,89.45
2022-12-15T14:34:42.009Z,90.22
2022-12-15T14:37:45.882Z,90.64
2022-12-15T14:40:49.967Z,90.69
2022-12-15T14:47:34.356Z,91.65
2022-12-15T14:50:37.717Z,92.01
2022-12-15T14:53:42.340Z,91.94
2022-12-15T14:56:45.503Z,91.87
2022-12-15T14:59:48.939Z,92.35
2022-12-15T15:03:16.173Z,91.05
2022-12-15T15:03:18.471Z,92.71
2022-12-15T15:06:25.156Z,92.43
2022-12-15T15:09:41.900Z,92.95
2022-12-15T15:12:45.757Z,93.17
2022-12-15T15:15:57.785Z,93.48
2022-12-15T15:19:02.606Z,94.41
2022-12-15T15:22:05.872Z,94.52
2022-12-15T15:25:31.628Z,94.62
2022-12-15T15:28:44.841Z,94.81
2022-12-15T15:31:47.848Z,94.92
2022-12-15T15:34:52.295Z,95.43
2022-12-15T15:37:59.852Z,95.23
2022-12-15T15:41:17.611Z,95.04
2022-12-15T15:44:20.433Z,95.62
2022-12-15T15:47:27.365Z,95.72
2022-12-15T15:50:30.455Z,96.43
2022-12-15T15:53:34.812Z,96.99
2022-12-15T15:56:37.699Z,96.54
2022-12-15T15:59:42.530Z,96.94
2022-12-15T16:02:45.542Z,97.01
2022-12-15T16:05:48.862Z,97.63
2022-12-15T16:08:53.980Z,97.94
2022-12-15T16:11:58.494Z,98.11
2022-12-15T16:15:01.261Z,98.78
2022-12-15T16:18:05.834Z,98.44
2022-12-15T16:21:10.863Z,99.68
2022-12-15T16:24:16.978Z,100.00
2022-12-15T16:27:19.926Z,100.00
2022-12-15T16:30:25.860Z,100.00
2022-12-15T16:33:28.837Z,100.00
2022-12-15T16:36:32.876Z,100.00
2022-12-15T16:39:35.905Z,100.00
2022-12-15T16:42:39.221Z,100.00
2022-12-15T16:45:45.288Z,100.00
2022-12-15T16:48:48.771Z,100.00
2022-12-15T16:51:53.795Z,100.00
2022-12-15T16:54:57.414Z,100.00
2022-12-15T16:58:03.310Z,100.00
2022-12-15T17:01:06.598Z,100.00
2022-12-15T17:04:09.655Z,100.00
2022-12-15T17:07:19.712Z,100.00
2022-12-15T17:10:26.610Z,100.00
2022-12-15T17:13:45.416Z,100.00
2022-12-15T17:16:48.907Z,100.00
2022-12-15T17:20:27.281Z,100.00
2022-12-15T17:23:21.309Z,100.00
2022-12-15T17:26:30.165Z,100.00
2022-12-15T17:29:33.951Z,100.00
2022-12-15T17:32:37.451Z,100.00
2022-12-15T17:35:40.579Z,100.00
2022-12-15T17:38:43.890Z,100.00
2022-12-15T17:42:04.804Z,100.00
2022-12-15T17:45:21.067Z,100.00
2022-12-15T17:48:25.027Z,100.00
2022-12-15T17:51:29.600Z,100.00
2022-12-15T17:54:34.967Z,100.00
2022-12-15T17:57:38.614Z,100.00
2022-12-15T18:00:48.900Z,100.00
2022-12-15T18:03:55.946Z,100.00
2022-12-15T18:07:02.113Z,100.00
2022-12-15T18:10:26.322Z,100.00
2022-12-15T18:13:35.579Z,100.00
2022-12-15T18:16:39.383Z,100.00
2022-12-15T18:19:42.461Z,100.00
2022-12-15T18:22:46.885Z,100.00
2022-12-15T18:25:50.780Z,100.00
2022-12-15T18:28:55.443Z,100.00
2022-12-15T18:31:58.936Z,100.00
2022-12-15T18:35:03.125Z,100.00
2022-12-15T18:38:24.954Z,100.00
2022-12-15T18:41:34.886Z,100.00
2022-12-15T18:44:47.627Z,100.00
2022-12-15T18:47:53.213Z,100.00
2022-12-15T18:51:04.498Z,100.00
2022-12-15T18:54:17.155Z,100.00
2022-12-15T18:57:34.154Z,100.00
2022-12-15T19:00:40.036Z,100.00
2022-12-15T19:03:44.323Z,100.00
2022-12-15T19:06:48.085Z,100.00
2022-12-15T19:09:52.432Z,100.00
2022-12-15T19:12:58.669Z,100.00
2022-12-15T19:16:03.742Z,100.00
2022-12-15T19:19:29.074Z,100.00
2022-12-15T19:22:32.929Z,100.00
2022-12-15T19:25:37.191Z,100.00
2022-12-15T19:28:40.797Z,100.00
2022-12-15T19:31:45.230Z,100.00
2022-12-15T19:34:48.918Z,100.00
2022-12-15T19:37:55.365Z,100.00
2022-12-15T19:40:59.968Z,100.00
2022-12-15T19:44:04.242Z,100.00
2022-12-15T19:47:14.819Z,100.00
2022-12-15T19:50:31.734Z,100.00
2022-12-15T19:53:36.727Z,100.00
2022-12-15T19:56:42.642Z,100.00
2022-12-15T19:59:47.054Z,100.00
2022-12-15T20:02:52.241Z,100.00
2022-12-15T20:05:57.026Z,100.00
2022-12-15T20:09:00.780Z,100.00
2022-12-15T20:12:06.014Z,100.00
2022-12-15T20:15:19.415Z,100.00
2022-12-15T20:18:24.299Z,100.00
2022-12-15T20:21:32.759Z,100.00
2022-12-15T20:24:36.855Z,100.00
2022-12-15T20:27:41.136Z,100.00
2022-12-15T20:30:47.968Z,100.00
2022-12-15T20:33:57.292Z,100.00
2022-12-15T20:37:01.272Z,100.00
2022-12-15T20:40:15.869Z,100.00
2022-12-15T20:43:20.963Z,100.00
2022-12-15T20:46:30.607Z,100.00
2022-12-15T20:49:34.500Z,100.00
2022-12-15T20:52:37.754Z,100.00
2022-12-15T20:55:41.493Z,100.00
2022-12-15T20:58:46.282Z,100.00
2022-12-15T21:01:51.064Z,100.00
2022-12-15T21:04:55.768Z,100.00
2022-12-15T21:08:00.672Z,100.00
2022-12-15T21:11:27.595Z,100.00
2022-12-15T21:14:31.150Z,100.00
2022-12-15T21:17:37.436Z,100.00
2022-12-15T21:20:51.730Z,100.00
2022-12-15T21:23:56.158Z,100.00
2022-12-15T21:27:02.394Z,100.00
2022-12-15T21:30:14.909Z,100.00
2022-12-15T21:33:18.308Z,100.00
2022-12-15T21:36:21.839Z,100.00
2022-12-15T21:39:31.173Z,100.00
2022-12-15T21:42:35.761Z,100.00
2022-12-15T21:45:39.073Z,100.00
2022-12-15T21:49:01.036Z,100.00
2022-12-15T21:52:04.529Z,100.00
2022-12-15T21:55:18.116Z,100.00
2022-12-15T21:58:24.516Z,100.00
2022-12-15T22:01:31.014Z,100.00
2022-12-15T22:04:35.388Z,100.00
2022-12-15T22:07:39.798Z,100.00
2022-12-15T22:10:43.209Z,100.00
2022-12-15T22:13:46.182Z,100.00
2022-12-15T22:16:49.412Z,100.00
2022-12-15T22:19:53.171Z,100.00
2022-12-15T22:22:56.668Z,100.00
2022-12-15T22:25:59.810Z,100.00
2022-12-15T22:29:09.255Z,100.00
2022-12-15T22:32:14.377Z,100.00
2022-12-15T22:35:20.440Z,100.00
2022-12-15T22:38:23.787Z,100.00
2022-12-15T22:41:27.012Z,100.00
2022-12-15T22:44:36.077Z,100.00
2022-12-15T22:47:39.332Z,100.00
2022-12-15T22:50:42.301Z,100.00
2022-12-15T22:53:45.616Z,100.00
2022-12-15T22:57:06.073Z,100.00
2022-12-15T23:00:11.257Z,100.00
2022-12-15T23:03:14.131Z,100.00
2022-12-15T23:06:17.422Z,100.00
2022-12-15T23:09:20.357Z,100.00
2022-12-15T23:12:23.567Z,100.00
2022-12-15T23:15:46.602Z,100.00
2022-12-15T23:18:52.990Z,100.00
2022-12-15T23:21:57.617Z,100.00
2022-12-15T23:25:02.201Z,100.00
2022-12-15T23:28:05.560Z,100.00
2022-12-15T23:31:09.093Z,100.00
2022-12-15T23:34:12.629Z,100.00
2022-12-15T23:37:16.440Z,100.00
2022-12-15T23:40:22.275Z,100.00
2022-12-15T23:43:27.471Z,100.00
2022-12-15T23:46:30.341Z,100.00
2022-12-15T23:49:33.556Z,100.00
2022-12-15T23:52:37.164Z,100.00
2022-12-15T23:55:40.487Z,100.00
2022-12-15T23:58:45.118Z,100.00
